Time;durP1;ratioP1;P1;durP2;ratioP2;P2;SDS_P1;SDS_P2;PMS_P1;PMS_P2;Temp;Humidity;BMP_temperature;BMP_pressure;BME280_temperature;BME280_humidity;BME280_pressure;Samples;Min_cycle;Max_cycle;Signal;HPM_P1;HPM_P2
2022/04/04 00:00:43;;;;;;;5.77;2.90;;;15.40;97.70;;;;;;4845897;29;20465;-61
2022/04/04 00:03:14;;;;;;;2.90;2.50;;;15.40;97.60;;;;;;4844754;29;20538;-61
2022/04/04 00:05:45;;;;;;;3.70;2.77;;;15.30;97.90;;;;;;4846031;29;20469;-61
2022/04/04 00:08:17;;;;;;;3.43;2.73;;;15.30;98.20;;;;;;4846628;29;20474;-61
2022/04/04 00:10:48;;;;;;;5.53;2.70;;;15.30;97.60;;;;;;4845373;29;20459;-66
2022/04/04 00:13:19;;;;;;;2.87;2.40;;;15.20;99.20;;;;;;4843689;29;20550;-63
2022/04/04 00:15:50;;;;;;;5.57;2.30;;;15.10;98.70;;;;;;4844558;29;20468;-62
2022/04/04 00:18:22;;;;;;;2.70;2.23;;;15.10;99.00;;;;;;4844485;29;20498;-63
2022/04/04 00:20:56;;;;;;;6.47;2.93;;;15.00;98.70;;;;;;4847275;29;20452;-65
2022/04/04 00:23:28;;;;;;;3.10;2.50;;;15.00;99.10;;;;;;4845423;29;20481;-66
2022/04/04 00:26:08;;;;;;;6.50;2.87;;;15.00;99.90;;;;;;4848786;29;20462;-63
2022/04/04 00:28:39;;;;;;;4.23;2.70;;;14.90;99.80;;;;;;4844462;29;20458;-62
2022/04/04 00:31:10;;;;;;;5.07;3.20;;;14.90;99.90;;;;;;4839257;29;20482;-64
2022/04/04 00:33:41;;;;;;;4.37;2.70;;;15.00;99.90;;;;;;4842303;29;20474;-62
2022/04/04 00:36:13;;;;;;;5.73;2.90;;;14.90;99.60;;;;;;4848675;29;20470;-66
2022/04/04 00:38:45;;;;;;;4.37;2.97;;;14.80;99.90;;;;;;4846357;29;20490;-62
2022/04/04 00:41:17;;;;;;;6.80;4.87;;;14.80;99.90;;;;;;4850695;29;20477;-62
2022/04/04 00:43:52;;;;;;;5.83;3.50;;;14.80;99.90;;;;;;4841768;29;22298;-62
2022/04/04 00:46:23;;;;;;;5.13;3.10;;;14.70;99.90;;;;;;4850516;29;20577;-63
2022/04/04 00:48:56;;;;;;;3.87;2.60;;;14.60;99.90;;;;;;4847652;29;20486;-62
2022/04/04 00:54:27;;;;;;;4.43;3.10;;;14.70;99.90;;;;;;4843115;29;20545;-63
2022/04/04 00:56:58;;;;;;;3.73;2.97;;;14.50;99.90;;;;;;4844995;29;20478;-61
2022/04/04 00:59:29;;;;;;;5.37;2.80;;;14.50;99.90;;;;;;4835579;29;20503;-62
2022/04/04 01:02:00;;;;;;;6.47;3.10;;;14.40;99.90;;;;;;4849469;29;20463;-63
2022/04/04 01:04:31;;;;;;;5.97;3.17;;;14.40;99.90;;;;;;4849286;29;20482;-60
2022/04/04 01:07:02;;;;;;;5.53;3.40;;;14.30;99.90;;;;;;4844233;29;20508;-61
2022/04/04 01:09:35;;;;;;;6.07;4.20;;;14.30;99.90;;;;;;4846239;29;20454;-62
2022/04/04 01:12:08;;;;;;;4.67;3.70;;;14.30;99.90;;;;;;4845422;29;20484;-63
2022/04/04 01:14:40;;;;;;;5.20;3.70;;;14.30;99.90;;;;;;4846341;29;20553;-61
2022/04/04 01:17:11;;;;;;;4.80;4.40;;;14.10;99.90;;;;;;4850178;29;20490;-62
2022/04/04 01:19:42;;;;;;;6.07;3.90;;;14.20;99.90;;;;;;4848889;29;20519;-69
2022/04/04 01:22:14;;;;;;;8.07;4.33;;;14.10;99.90;;;;;;4849854;29;20482;-67
2022/04/04 01:24:46;;;;;;;4.70;3.47;;;14.10;99.90;;;;;;4850783;29;20463;-68
2022/04/04 01:27:17;;;;;;;6.70;3.70;;;14.10;99.90;;;;;;4849709;29;20459;-68
2022/04/04 01:29:48;;;;;;;4.90;3.50;;;14.00;99.90;;;;;;4850488;29;20573;-68
2022/04/04 01:32:20;;;;;;;4.07;2.93;;;14.00;99.90;;;;;;4850193;29;20483;-68
2022/04/04 01:34:51;;;;;;;6.80;4.10;;;14.00;99.90;;;;;;4850993;29;20544;-68
2022/04/04 01:37:22;;;;;;;7.50;4.60;;;14.00;99.90;;;;;;4845110;29;20462;-69
2022/04/04 01:39:54;;;;;;;6.90;3.40;;;13.80;99.90;;;;;;4844689;29;20482;-70
2022/04/04 01:42:25;;;;;;;6.77;4.00;;;13.80;99.90;;;;;;4843613;29;20458;-68
2022/04/04 01:44:56;;;;;;;6.13;3.57;;;13.70;99.90;;;;;;4843415;29;20482;-72
2022/04/04 01:47:27;;;;;;;8.30;4.07;;;13.70;99.90;;;;;;4844387;29;20548;-70
2022/04/04 01:49:58;;;;;;;6.30;3.30;;;13.60;99.90;;;;;;4843993;29;20575;-64
2022/04/04 01:52:40;;;;;;;5.70;3.40;;;13.50;99.90;;;;;;4842576;29;20517;-64
2022/04/04 01:55:20;;;;;;;6.63;3.70;;;13.60;99.90;;;;;;4842971;29;20487;-63
2022/04/04 01:57:55;;;;;;;4.63;3.70;;;13.50;99.90;;;;;;4843365;29;20463;-64
2022/04/04 02:00:26;;;;;;;4.40;3.30;;;13.50;99.90;;;;;;4843238;29;20522;-63
2022/04/04 02:02:56;;;;;;;3.43;2.47;;;13.60;99.90;;;;;;4843970;29;20463;-63
2022/04/04 02:05:27;;;;;;;4.73;3.07;;;13.50;99.90;;;;;;4841320;29;20478;-63
2022/04/04 02:07:58;;;;;;;5.37;3.03;;;13.40;99.90;;;;;;4841444;29;20611;-64
2022/04/04 02:10:31;;;;;;;4.60;3.60;;;13.30;99.90;;;;;;4842307;29;20462;-63
2022/04/04 02:13:02;;;;;;;8.87;2.60;;;13.10;99.90;;;;;;4842678;29;20518;-61
2022/04/04 02:15:33;;;;;;;1.83;1.63;;;13.00;99.90;;;;;;4844496;29;20465;-64
2022/04/04 02:18:04;;;;;;;2.93;2.00;;;12.90;99.90;;;;;;4840945;29;20458;-64
2022/04/04 02:20:34;;;;;;;2.90;2.10;;;12.80;99.90;;;;;;4834279;29;20984;-63
2022/04/04 02:23:05;;;;;;;3.47;1.60;;;12.70;99.90;;;;;;4843947;29;20517;-65
2022/04/04 02:25:39;;;;;;;4.23;2.10;;;12.60;99.90;;;;;;4850335;29;20462;-65
2022/04/04 02:28:13;;;;;;;2.43;1.77;;;12.50;99.90;;;;;;4835456;29;20462;-63
2022/04/04 02:30:44;;;;;;;2.73;2.00;;;12.50;99.90;;;;;;4844478;29;20533;-65
2022/04/04 02:33:16;;;;;;;3.67;2.33;;;12.40;99.90;;;;;;4850499;29;20466;-60
2022/04/04 02:35:48;;;;;;;2.27;1.70;;;12.30;99.90;;;;;;4849290;29;20530;-62
2022/04/04 02:38:19;;;;;;;3.83;2.30;;;12.10;99.90;;;;;;4848554;29;20465;-63
2022/04/04 02:40:52;;;;;;;1.97;1.47;;;12.10;99.90;;;;;;4843530;29;20496;-63
2022/04/04 02:43:24;;;;;;;4.80;2.00;;;12.00;99.90;;;;;;4844492;29;20450;-63
2022/04/04 02:45:55;;;;;;;2.80;2.60;;;12.00;99.90;;;;;;4846117;29;20460;-63
2022/04/04 02:48:26;;;;;;;3.40;2.37;;;11.90;99.90;;;;;;4844402;29;20474;-63
2022/04/04 02:50:57;;;;;;;4.33;1.87;;;11.90;99.90;;;;;;4841664;29;20473;-63
2022/04/04 02:53:28;;;;;;;6.47;1.97;;;11.80;99.90;;;;;;4849910;29;20462;-63
2022/04/04 02:58:48;;;;;;;2.87;2.60;;;11.70;99.90;;;;;;4846333;29;20447;-65
2022/04/04 03:01:20;;;;;;;3.57;2.90;;;11.60;99.90;;;;;;4845763;29;20486;-63
2022/04/04 03:03:51;;;;;;;4.20;2.90;;;11.60;99.90;;;;;;4845936;29;20461;-63
2022/04/04 03:06:22;;;;;;;5.23;3.03;;;11.60;99.90;;;;;;4851516;29;20493;-63
2022/04/04 03:08:53;;;;;;;4.73;3.10;;;11.60;99.90;;;;;;4842205;29;20458;-64
2022/04/04 03:11:25;;;;;;;3.93;3.30;;;11.50;99.90;;;;;;4850722;29;20796;-63
2022/04/04 03:13:56;;;;;;;3.60;3.13;;;11.40;99.90;;;;;;4846869;29;20454;-63
2022/04/04 03:16:27;;;;;;;3.90;3.17;;;11.40;99.90;;;;;;4853448;29;20470;-61
2022/04/04 03:19:01;;;;;;;3.73;3.30;;;11.30;99.90;;;;;;4852927;29;20470;-61
2022/04/04 03:21:32;;;;;;;6.30;3.77;;;11.30;99.90;;;;;;4847935;29;20498;-61
2022/04/04 03:24:02;;;;;;;4.30;2.87;;;11.20;99.90;;;;;;4836476;29;20467;-61
2022/04/04 03:26:35;;;;;;;6.97;3.40;;;11.10;99.90;;;;;;4847151;29;20526;-60
2022/04/04 03:29:06;;;;;;;3.47;3.17;;;11.00;99.90;;;;;;4847066;29;20464;-61
2022/04/04 03:31:37;;;;;;;3.87;3.50;;;11.00;99.90;;;;;;4846590;29;20473;-61
2022/04/04 03:34:08;;;;;;;4.90;3.80;;;11.00;99.90;;;;;;4847247;29;20462;-61
2022/04/04 03:36:39;;;;;;;7.90;4.13;;;11.00;99.90;;;;;;4845362;29;20499;-61
2022/04/04 03:39:13;;;;;;;7.67;3.80;;;11.00;99.90;;;;;;4845573;29;20462;-61
2022/04/04 03:41:47;;;;;;;8.63;3.80;;;11.00;99.90;;;;;;4844113;29;20504;-61
2022/04/04 03:44:20;;;;;;;4.00;3.60;;;10.90;99.90;;;;;;4846500;29;20469;-61
2022/04/04 03:46:51;;;;;;;3.73;3.23;;;11.00;99.90;;;;;;4845438;29;20454;-60
2022/04/04 03:49:34;;;;;;;4.43;3.73;;;10.90;99.90;;;;;;4846113;29;20943;-60
2022/04/04 03:52:05;;;;;;;5.83;3.33;;;10.90;99.90;;;;;;4846603;29;20466;-60
2022/04/04 03:54:36;;;;;;;4.47;3.97;;;10.90;99.90;;;;;;4845730;29;20481;-61
2022/04/04 03:57:09;;;;;;;4.57;3.70;;;10.90;99.90;;;;;;4844477;29;20463;-61
2022/04/04 03:59:43;;;;;;;4.47;3.03;;;10.80;99.90;;;;;;4842267;29;20472;-61
2022/04/04 04:02:16;;;;;;;4.50;2.70;;;10.80;99.90;;;;;;4841240;29;20482;-60
2022/04/04 04:04:48;;;;;;;5.47;2.90;;;10.80;99.90;;;;;;4847382;29;20477;-60
2022/04/04 04:07:24;;;;;;;4.20;3.30;;;10.70;99.90;;;;;;4850510;29;20496;-60
2022/04/04 04:09:55;;;;;;;2.97;2.70;;;10.70;99.90;;;;;;4848358;29;20552;-60
2022/04/04 04:12:27;;;;;;;4.13;2.53;;;10.60;99.90;;;;;;4839900;29;20467;-60
2022/04/04 04:15:03;;;;;;;6.77;3.17;;;10.60;99.90;;;;;;4852539;29;20919;-61
2022/04/04 04:17:34;;;;;;;3.40;2.30;;;10.60;99.90;;;;;;4852677;29;20466;-60
2022/04/04 04:20:22;;;;;;;4.30;2.77;;;10.60;99.90;;;;;;4846705;29;20554;-60
2022/04/04 04:22:55;;;;;;;4.60;3.10;;;10.50;99.90;;;;;;4841427;29;20523;-60
2022/04/04 04:25:30;;;;;;;4.70;2.77;;;10.50;99.90;;;;;;4844373;29;20488;-61
2022/04/04 04:28:05;;;;;;;6.30;3.07;;;10.50;99.90;;;;;;4846765;29;20473;-60
2022/04/04 04:30:36;;;;;;;4.17;3.00;;;10.40;99.90;;;;;;4847447;29;20470;-59
2022/04/04 04:33:07;;;;;;;5.67;3.37;;;10.40;99.90;;;;;;4848477;29;20513;-60
2022/04/04 04:35:38;;;;;;;6.30;2.93;;;10.40;99.90;;;;;;4844653;29;20462;-61
2022/04/04 04:38:09;;;;;;;5.60;2.80;;;10.40;99.90;;;;;;4847588;29;20541;-59
2022/04/04 04:40:40;;;;;;;7.70;3.00;;;10.30;99.90;;;;;;4851550;29;20533;-59
2022/04/04 04:43:12;;;;;;;5.10;2.80;;;10.30;99.90;;;;;;4850862;29;20629;-59
2022/04/04 04:45:43;;;;;;;6.67;3.50;;;10.30;99.90;;;;;;4850037;29;20465;-59
2022/04/04 04:48:14;;;;;;;6.27;2.93;;;10.30;99.90;;;;;;4849015;29;20833;-61
2022/04/04 04:50:47;;;;;;;5.37;3.60;;;10.20;99.90;;;;;;4846544;29;20476;-59
2022/04/04 04:53:18;;;;;;;5.63;2.70;;;10.20;99.90;;;;;;4845949;29;20467;-59
2022/04/04 04:58:41;;;;;;;6.83;3.57;;;10.20;99.90;;;;;;4848919;29;20530;-60
2022/04/04 05:01:13;;;;;;;5.93;3.47;;;10.10;99.90;;;;;;4851140;29;20581;-60
2022/04/04 05:03:44;;;;;;;7.20;4.63;;;10.20;99.90;;;;;;4847464;29;20593;-60
2022/04/04 05:06:15;;;;;;;6.38;3.28;;;10.10;99.90;;;;;;4838366;29;20248;-60
2022/04/04 05:08:46;;;;;;;6.38;3.30;;;10.10;99.90;;;;;;4845708;29;20236;-59
2022/04/04 05:11:17;;;;;;;7.38;3.35;;;10.10;99.90;;;;;;4848344;29;20227;-59
2022/04/04 05:13:50;;;;;;;7.87;3.37;;;10.10;99.90;;;;;;4849469;29;20212;-60
2022/04/04 05:16:28;;;;;;;4.00;3.50;;;10.10;99.90;;;;;;4845730;29;20485;-59
2022/04/04 05:19:01;;;;;;;8.02;3.58;;;10.10;99.90;;;;;;4838792;29;20455;-58
2022/04/04 05:21:31;;;;;;;5.97;3.47;;;10.00;99.90;;;;;;4847611;29;20225;-60
2022/04/04 05:24:02;;;;;;;5.10;3.60;;;10.00;99.90;;;;;;4849137;29;20235;-57
2022/04/04 05:26:33;;;;;;;6.57;3.70;;;9.90;99.90;;;;;;4843262;29;20278;-60
2022/04/04 05:29:06;;;;;;;5.47;3.67;;;9.90;99.90;;;;;;4844311;29;20467;-59
2022/04/04 05:31:37;;;;;;;6.15;4.00;;;9.90;99.90;;;;;;4841821;29;20279;-59
2022/04/04 05:34:08;;;;;;;6.73;3.80;;;9.90;99.90;;;;;;4849315;29;20269;-60
2022/04/04 05:36:39;;;;;;;7.20;4.07;;;9.90;99.90;;;;;;4848220;29;20465;-60
2022/04/04 05:39:10;;;;;;;5.00;3.70;;;9.80;99.90;;;;;;4850975;29;20460;-60
2022/04/04 05:41:41;;;;;;;4.27;3.40;;;9.80;99.90;;;;;;4847364;29;20500;-60
2022/04/04 05:44:14;;;;;;;6.23;3.70;;;9.70;99.90;;;;;;4850093;29;20470;-60
2022/04/04 05:46:45;;;;;;;11.35;4.00;;;9.70;99.90;;;;;;4851191;29;20479;-60
2022/04/04 05:49:16;;;;;;;7.40;3.80;;;9.70;99.90;;;;;;4847728;29;20437;-60
2022/04/04 05:51:48;;;;;;;4.30;3.40;;;9.70;99.90;;;;;;4850774;29;20447;-61
2022/04/04 05:54:34;;;;;;;6.40;3.22;;;9.70;99.90;;;;;;4840027;29;20458;-60
2022/04/04 05:57:05;;;;;;;4.87;3.50;;;9.70;99.90;;;;;;4848603;29;20210;-60
2022/04/04 05:59:37;;;;;;;4.15;3.55;;;9.60;99.90;;;;;;4839134;29;21051;-59
2022/04/04 06:02:08;;;;;;;8.55;3.63;;;9.60;99.90;;;;;;4839364;29;20253;-58
2022/04/04 06:04:39;;;;;;;4.07;3.00;;;9.60;99.90;;;;;;4846398;29;20206;-59
2022/04/04 06:07:10;;;;;;;8.93;3.40;;;9.60;99.90;;;;;;4841156;29;20232;-60
2022/04/04 06:09:41;;;;;;;5.88;3.35;;;9.60;99.90;;;;;;4850403;29;20489;-59
2022/04/04 06:12:12;;;;;;;7.93;4.00;;;9.60;99.90;;;;;;4839019;29;20228;-60
2022/04/04 06:14:44;;;;;;;6.07;3.63;;;9.60;99.90;;;;;;4848983;29;20306;-59
2022/04/04 06:17:15;;;;;;;9.10;3.05;;;9.60;99.90;;;;;;4850129;29;20469;-59
2022/04/04 06:19:46;;;;;;;4.53;3.30;;;9.60;99.90;;;;;;4838613;29;20246;-59
2022/04/04 06:22:16;;;;;;;6.88;3.38;;;9.60;99.90;;;;;;4845480;29;20498;-59
2022/04/04 06:24:47;;;;;;;8.47;3.80;;;9.60;99.90;;;;;;4845684;29;20205;-60
2022/04/04 06:27:18;;;;;;;4.45;3.40;;;9.60;99.90;;;;;;4832105;29;20470;-59
2022/04/04 06:29:51;;;;;;;7.95;4.60;;;9.60;99.90;;;;;;4847206;29;20228;-59
2022/04/04 06:32:24;;;;;;;7.57;3.80;;;9.60;99.90;;;;;;4850040;29;20213;-59
2022/04/04 06:34:55;;;;;;;6.47;4.38;;;9.60;99.90;;;;;;4848344;29;20193;-60
2022/04/04 06:37:25;;;;;;;6.25;4.13;;;9.60;99.90;;;;;;4844851;29;20226;-59
2022/04/04 06:39:56;;;;;;;7.60;3.93;;;9.60;99.90;;;;;;4840207;29;20217;-59
2022/04/04 06:42:27;;;;;;;7.13;3.40;;;9.60;99.90;;;;;;4835475;29;20841;-60
2022/04/04 06:44:59;;;;;;;3.72;3.35;;;9.60;99.90;;;;;;4849629;29;20667;-58
2022/04/04 06:47:30;;;;;;;6.40;3.42;;;9.60;99.90;;;;;;4844134;29;20219;-59
2022/04/04 06:50:01;;;;;;;7.35;3.25;;;9.50;99.90;;;;;;4850454;29;20583;-58
2022/04/04 06:52:32;;;;;;;5.97;3.78;;;9.50;99.90;;;;;;4844633;29;20212;-60
2022/04/04 06:55:05;;;;;;;6.55;3.40;;;9.50;99.90;;;;;;4837032;29;20225;-59
2022/04/04 06:57:35;;;;;;;6.35;3.50;;;9.50;99.90;;;;;;4836249;29;20212;-59
2022/04/04 07:00:11;;;;;;;6.47;3.78;;;9.50;99.90;;;;;;4846807;29;20237;-59
2022/04/04 07:02:42;;;;;;;5.55;3.20;;;9.50;99.90;;;;;;4852438;29;20240;-58
2022/04/04 07:05:15;;;;;;;5.72;3.33;;;9.50;99.90;;;;;;4848641;29;20224;-58
2022/04/04 07:07:47;;;;;;;6.07;3.70;;;9.50;99.90;;;;;;4844929;29;20243;-59
2022/04/04 07:10:18;;;;;;;8.80;3.60;;;9.50;99.90;;;;;;4848190;29;20239;-59
2022/04/04 07:12:49;;;;;;;3.58;3.10;;;9.50;99.90;;;;;;4837624;29;20217;-58
2022/04/04 07:15:21;;;;;;;4.00;3.15;;;9.40;99.90;;;;;;4840629;29;20216;-59
2022/04/04 07:17:55;;;;;;;4.85;3.38;;;9.40;99.90;;;;;;4850760;29;20251;-58
2022/04/04 07:20:26;;;;;;;6.97;3.05;;;9.40;99.90;;;;;;4852431;29;20250;-59
2022/04/04 07:23:00;;;;;;;4.47;3.70;;;9.40;99.90;;;;;;4849706;29;20416;-58
2022/04/04 07:25:30;;;;;;;11.38;3.65;;;9.40;99.90;;;;;;4844152;29;20214;-58
2022/04/04 07:28:01;;;;;;;6.18;3.45;;;9.40;99.90;;;;;;4843748;29;20288;-59
2022/04/04 07:30:34;;;;;;;5.15;3.53;;;9.40;99.90;;;;;;4849397;29;20241;-58
2022/04/04 07:33:05;;;;;;;4.90;2.67;;;9.40;99.90;;;;;;4840581;29;20343;-59
2022/04/04 07:35:36;;;;;;;7.28;3.22;;;9.40;99.90;;;;;;4848594;29;20221;-59
2022/04/04 07:38:07;;;;;;;4.13;3.25;;;9.40;99.90;;;;;;4852833;29;20205;-59
2022/04/04 07:40:38;;;;;;;7.25;2.47;;;9.40;99.90;;;;;;4850477;29;20213;-60
2022/04/04 07:43:09;;;;;;;4.82;2.53;;;9.40;99.90;;;;;;4848526;29;20248;-59
2022/04/04 07:45:42;;;;;;;5.03;2.85;;;9.40;99.90;;;;;;4844137;29;20546;-59
2022/04/04 07:48:13;;;;;;;9.85;2.85;;;9.40;99.90;;;;;;4852081;29;20216;-59
2022/04/04 07:50:45;;;;;;;3.00;2.70;;;9.40;99.90;;;;;;4841191;29;20278;-59
2022/04/04 07:53:15;;;;;;;5.18;3.03;;;9.40;99.90;;;;;;4840263;29;20228;-59
2022/04/04 07:55:47;;;;;;;3.80;3.10;;;9.40;99.90;;;;;;4841524;29;20213;-58
2022/04/04 07:58:17;;;;;;;3.35;2.72;;;9.40;99.90;;;;;;4850924;29;20347;-59
2022/04/04 08:00:52;;;;;;;7.68;3.20;;;9.30;99.90;;;;;;4851160;29;20268;-57
2022/04/04 08:03:23;;;;;;;3.88;2.25;;;9.40;99.90;;;;;;4849822;29;20228;-59
2022/04/04 08:05:55;;;;;;;2.80;2.23;;;9.30;99.90;;;;;;4841207;29;20281;-59
2022/04/04 08:08:26;;;;;;;4.50;2.87;;;9.30;99.90;;;;;;4853023;29;20461;-58
2022/04/04 08:10:57;;;;;;;4.55;2.85;;;9.30;99.90;;;;;;4848947;29;20473;-58
2022/04/04 08:13:28;;;;;;;2.70;2.50;;;9.30;99.90;;;;;;4834214;29;20214;-60
2022/04/04 08:16:01;;;;;;;4.75;2.90;;;9.30;99.90;;;;;;4851696;29;20466;-60
2022/04/04 08:18:32;;;;;;;3.25;2.92;;;9.30;99.90;;;;;;4852059;29;20205;-58
2022/04/04 08:21:02;;;;;;;3.13;2.92;;;9.30;99.90;;;;;;4851809;29;20285;-59
2022/04/04 08:23:33;;;;;;;3.47;2.33;;;9.30;99.90;;;;;;4838799;29;20244;-58
2022/04/04 08:26:04;;;;;;;4.78;2.53;;;9.30;99.90;;;;;;4849272;29;20205;-59
2022/04/04 08:28:35;;;;;;;4.50;2.60;;;9.30;99.90;;;;;;4851228;29;20213;-60
2022/04/04 08:31:08;;;;;;;4.03;2.90;;;9.30;99.90;;;;;;4851965;29;20679;-58
2022/04/04 08:33:38;;;;;;;6.68;2.72;;;9.30;99.90;;;;;;4844992;29;20202;-59
2022/04/04 08:36:09;;;;;;;2.45;2.17;;;9.30;99.90;;;;;;4840001;29;20300;-58
2022/04/04 08:38:41;;;;;;;4.25;2.45;;;9.30;99.90;;;;;;4839383;29;20686;-59
2022/04/04 08:41:12;;;;;;;3.42;2.15;;;9.30;99.90;;;;;;4834556;29;21065;-58
2022/04/04 08:43:43;;;;;;;3.95;3.45;;;9.30;99.90;;;;;;4841581;29;20234;-59
2022/04/04 08:46:18;;;;;;;3.30;2.33;;;9.30;99.90;;;;;;4849362;29;20205;-58
2022/04/04 08:48:49;;;;;;;3.28;2.30;;;9.30;99.90;;;;;;4852285;29;20203;-59
2022/04/04 08:51:20;;;;;;;2.80;2.53;;;9.30;99.90;;;;;;4848083;29;20205;-60
2022/04/04 08:53:51;;;;;;;3.63;2.53;;;9.30;99.90;;;;;;4840227;29;20466;-58
2022/04/04 08:56:25;;;;;;;5.22;2.40;;;9.30;99.90;;;;;;4851072;29;20220;-59
2022/04/04 08:58:56;;;;;;;2.85;1.98;;;9.30;99.90;;;;;;4851169;29;20205;-59
2022/04/04 09:01:30;;;;;;;3.20;2.50;;;9.30;99.90;;;;;;4847653;29;20229;-56
2022/04/04 09:04:19;;;;;;;2.75;2.50;;;9.20;99.90;;;;;;4834290;29;20237;-57
2022/04/04 09:06:52;;;;;;;4.47;2.50;;;9.20;99.90;;;;;;4838690;29;20249;-57
2022/04/04 09:09:26;;;;;;;4.63;2.25;;;9.20;99.90;;;;;;4848601;29;20249;-59
2022/04/04 09:12:08;;;;;;;3.13;2.05;;;9.20;99.90;;;;;;4845320;29;20491;-58
2022/04/04 09:14:43;;;;;;;3.25;2.10;;;9.20;99.90;;;;;;4844029;29;20217;-57
2022/04/04 09:17:18;;;;;;;5.07;2.00;;;9.20;99.90;;;;;;4835402;29;20213;-58
2022/04/04 09:19:48;;;;;;;1.90;1.60;;;9.20;99.90;;;;;;4848825;29;20268;-58
2022/04/04 09:22:20;;;;;;;3.05;2.47;;;9.20;99.90;;;;;;4844732;29;20212;-58
2022/04/04 09:24:55;;;;;;;3.83;1.80;;;9.20;99.90;;;;;;4850406;29;20534;-58
2022/04/04 09:27:28;;;;;;;3.03;1.75;;;9.20;99.90;;;;;;4844912;29;20219;-58
2022/04/04 09:30:01;;;;;;;2.75;1.85;;;9.20;99.90;;;;;;4834130;29;20278;-56
2022/04/04 09:32:41;;;;;;;3.33;1.85;;;9.20;99.90;;;;;;4842929;29;20223;-57
2022/04/04 09:35:14;;;;;;;5.32;1.95;;;9.20;99.90;;;;;;4848164;29;20209;-59
2022/04/04 09:37:45;;;;;;;1.80;1.70;;;9.10;99.90;;;;;;4848852;29;20268;-57
2022/04/04 09:40:18;;;;;;;1.50;1.38;;;9.10;99.90;;;;;;4851153;29;20281;-56
2022/04/04 09:43:01;;;;;;;1.50;1.40;;;9.10;99.90;;;;;;4849251;29;20213;-58
2022/04/04 09:45:32;;;;;;;3.00;1.60;;;9.10;99.90;;;;;;4837486;29;20205;-59
2022/04/04 09:48:08;;;;;;;2.35;1.42;;;9.10;99.90;;;;;;4848997;29;20250;-56
2022/04/04 09:50:44;;;;;;;1.73;1.63;;;9.10;99.90;;;;;;4850823;29;20213;-58
2022/04/04 09:53:17;;;;;;;1.45;1.35;;;9.10;99.90;;;;;;4846543;29;20240;-58
2022/04/04 09:55:51;;;;;;;1.90;1.45;;;9.10;99.90;;;;;;4841789;29;20214;-60
2022/04/04 09:58:25;;;;;;;1.73;1.63;;;9.10;99.90;;;;;;4835183;29;20594;-58
2022/04/04 10:00:58;;;;;;;1.70;1.60;;;9.10;99.90;;;;;;4844582;29;20323;-56
2022/04/04 10:03:33;;;;;;;1.40;1.30;;;9.20;99.90;;;;;;4849278;29;20257;-57
2022/04/04 10:06:07;;;;;;;2.15;1.55;;;9.10;99.90;;;;;;4844947;29;20237;-57
2022/04/04 10:08:40;;;;;;;2.72;1.50;;;9.10;99.90;;;;;;4833178;29;20213;-57
2022/04/04 10:11:11;;;;;;;2.05;1.63;;;9.10;99.90;;;;;;4843773;29;20213;-57
2022/04/04 10:13:42;;;;;;;3.08;2.10;;;9.20;99.90;;;;;;4836217;29;20191;-58
2022/04/04 10:16:14;;;;;;;2.13;1.40;;;9.20;99.90;;;;;;4844964;29;20206;-58
2022/04/04 10:18:47;;;;;;;3.53;1.55;;;9.20;99.90;;;;;;4842610;29;20209;-57
2022/04/04 10:21:18;;;;;;;2.25;1.30;;;9.20;99.90;;;;;;4843832;29;20210;-58
2022/04/04 10:23:53;;;;;;;4.00;1.67;;;9.20;99.90;;;;;;4848470;29;20328;-58
2022/04/04 10:26:29;;;;;;;2.00;1.20;;;9.20;99.90;;;;;;4846143;29;20205;-58
2022/04/04 10:29:14;;;;;;;1.20;1.10;;;9.20;99.90;;;;;;4850071;29;20198;-58
2022/04/04 10:31:52;;;;;;;2.10;1.40;;;9.20;99.90;;;;;;4849752;29;20213;-58
2022/04/04 10:34:27;;;;;;;1.48;1.38;;;9.20;99.90;;;;;;4849146;29;20229;-58
2022/04/04 10:37:10;;;;;;;1.63;1.52;;;9.30;99.90;;;;;;4849731;29;20213;-56
2022/04/04 10:39:45;;;;;;;1.60;1.50;;;9.30;99.90;;;;;;4843498;29;20223;-56
2022/04/04 10:42:27;;;;;;;1.70;1.60;;;9.30;99.90;;;;;;4834471;29;20532;-58
2022/04/04 10:45:10;;;;;;;2.15;1.95;;;9.20;99.90;;;;;;4847911;29;20293;-58
2022/04/04 10:47:43;;;;;;;2.35;1.45;;;9.20;99.90;;;;;;4850507;29;20206;-57
2022/04/04 10:50:29;;;;;;;2.40;1.77;;;9.20;99.90;;;;;;4837496;29;20535;-57
2022/04/04 10:53:01;;;;;;;2.60;2.40;;;9.30;99.90;;;;;;4849271;29;20205;-55
2022/04/04 10:55:53;;;;;;;2.03;1.90;;;9.30;99.90;;;;;;4850447;29;20213;-53
2022/04/04 10:58:25;;;;;;;1.25;1.00;;;9.30;99.90;;;;;;4849422;29;20220;-58
2022/04/04 11:01:01;;;;;;;4.45;2.40;;;9.30;99.90;;;;;;4835669;29;20611;-57
2022/04/04 11:03:34;;;;;;;1.83;1.33;;;9.30;99.90;;;;;;4840996;29;20281;-57
2022/04/04 11:09:15;;;;;;;1.40;1.15;;;9.30;99.90;;;;;;4849582;29;20202;-57
2022/04/04 11:11:50;;;;;;;1.30;1.00;;;9.30;99.90;;;;;;4849480;29;20209;-57
2022/04/04 11:14:46;;;;;;;1.85;1.65;;;9.30;99.90;;;;;;4835517;29;20602;-58
2022/04/04 11:17:23;;;;;;;1.35;1.25;;;9.30;99.90;;;;;;4848873;29;20210;-54
2022/04/04 11:19:57;;;;;;;1.20;1.17;;;9.30;99.90;;;;;;4841383;29;20224;-58
2022/04/04 11:22:31;;;;;;;2.25;1.30;;;9.30;99.90;;;;;;4832444;29;20216;-58
2022/04/04 11:25:07;;;;;;;1.20;0.95;;;9.30;99.90;;;;;;4850189;29;20267;-59
2022/04/04 11:27:40;;;;;;;1.75;0.98;;;9.30;99.90;;;;;;4834499;29;20213;-59
2022/04/04 11:30:13;;;;;;;1.15;1.05;;;9.30;99.90;;;;;;4848663;29;20209;-60
2022/04/04 11:32:54;;;;;;;1.13;0.63;;;9.30;99.90;;;;;;4835761;29;20296;-57
2022/04/04 11:35:27;;;;;;;1.63;1.53;;;9.30;99.90;;;;;;4836165;29;20227;-57
2022/04/04 11:38:01;;;;;;;0.88;0.85;;;9.30;99.90;;;;;;4841595;29;20466;-58
2022/04/04 11:40:36;;;;;;;1.70;1.25;;;9.30;99.90;;;;;;4853327;29;20223;-59
2022/04/04 11:43:09;;;;;;;0.77;0.77;;;9.30;99.90;;;;;;4850712;29;20240;-59
2022/04/04 11:45:42;;;;;;;0.73;0.70;;;9.40;99.90;;;;;;4835365;29;20238;-58
2022/04/04 11:48:16;;;;;;;1.45;1.33;;;9.40;99.90;;;;;;4843933;29;20538;-58
2022/04/04 11:50:49;;;;;;;1.70;0.88;;;9.30;99.90;;;;;;4837119;29;20224;-57
2022/04/04 11:53:25;;;;;;;0.70;0.70;;;9.40;99.90;;;;;;4851635;29;20213;-58
2022/04/04 11:56:02;;;;;;;1.20;1.10;;;9.30;99.90;;;;;;4845774;29;20212;-58
2022/04/04 11:58:38;;;;;;;0.80;0.80;;;9.30;99.90;;;;;;4840490;29;20575;-58
2022/04/04 12:01:09;;;;;;;0.60;0.55;;;9.30;99.90;;;;;;4836195;29;20214;-59
2022/04/04 12:03:43;;;;;;;0.80;0.80;;;9.30;99.90;;;;;;4836449;29;20329;-60
2022/04/04 12:06:17;;;;;;;0.88;0.80;;;9.30;99.90;;;;;;4835077;29;20242;-57
2022/04/04 12:08:50;;;;;;;0.82;0.80;;;9.40;99.90;;;;;;4852082;29;20213;-59
2022/04/04 12:11:29;;;;;;;1.60;0.68;;;9.40;99.90;;;;;;4850467;29;20213;-59
2022/04/04 12:14:02;;;;;;;0.80;0.80;;;9.40;99.90;;;;;;4844061;29;20216;-59
2022/04/04 12:16:33;;;;;;;0.85;0.70;;;9.40;99.90;;;;;;4835796;29;20210;-59
2022/04/04 12:19:11;;;;;;;1.13;1.10;;;9.40;99.90;;;;;;4841863;29;20193;-60
2022/04/04 12:21:42;;;;;;;1.77;0.80;;;9.40;99.90;;;;;;4835791;29;20206;-59
2022/04/04 12:27:13;;;;;;;0.68;0.68;;;9.40;99.90;;;;;;4841656;29;20209;-60
2022/04/04 12:29:45;;;;;;;1.58;0.70;;;9.50;99.90;;;;;;4840275;29;20229;-56
2022/04/04 12:32:18;;;;;;;0.85;0.85;;;9.50;99.90;;;;;;4842889;29;20218;-59
2022/04/04 12:35:00;;;;;;;1.00;0.80;;;9.50;99.90;;;;;;4847885;29;20268;-58
2022/04/04 12:37:39;;;;;;;0.98;0.98;;;9.50;99.90;;;;;;4849439;29;20219;-58
2022/04/04 12:40:22;;;;;;;0.70;0.70;;;9.50;99.90;;;;;;4843346;29;20202;-58
2022/04/04 12:42:54;;;;;;;0.60;0.60;;;9.60;99.90;;;;;;4833536;29;20233;-58
2022/04/04 12:45:25;;;;;;;2.50;0.82;;;9.60;99.90;;;;;;4839436;29;20511;-57
2022/04/04 12:47:58;;;;;;;0.75;0.70;;;9.60;99.90;;;;;;4844579;29;20209;-58
2022/04/04 12:50:39;;;;;;;1.02;0.73;;;9.60;99.90;;;;;;4834684;29;20213;-57
2022/04/04 12:53:12;;;;;;;1.23;0.70;;;9.70;99.90;;;;;;4851024;29;20662;-58
2022/04/04 12:56:02;;;;;;;0.85;0.85;;;9.70;99.90;;;;;;4852262;29;20197;-58
2022/04/04 12:58:33;;;;;;;0.95;0.52;;;9.70;99.90;;;;;;4849545;29;20306;-59
2022/04/04 13:01:15;;;;;;;0.50;0.50;;;9.80;99.90;;;;;;4845149;29;20208;-58
2022/04/04 13:03:50;;;;;;;0.50;0.50;;;9.80;99.90;;;;;;4846457;29;20206;-57
2022/04/04 13:06:22;;;;;;;1.30;0.43;;;9.80;99.90;;;;;;4842463;29;20251;-58
2022/04/04 13:08:57;;;;;;;1.15;0.77;;;9.80;99.90;;;;;;4843498;29;20462;-58
2022/04/04 13:11:31;;;;;;;2.50;1.17;;;9.80;99.90;;;;;;4847979;29;20217;-59
2022/04/04 13:14:08;;;;;;;6.07;1.30;;;9.80;99.90;;;;;;4844464;29;20463;-59
2022/04/04 13:16:40;;;;;;;4.32;1.48;;;9.70;99.90;;;;;;4844746;29;20539;-58
2022/04/04 13:19:12;;;;;;;2.20;1.40;;;9.70;99.90;;;;;;4852169;29;20202;-58
2022/04/04 13:21:44;;;;;;;3.85;1.50;;;9.70;99.90;;;;;;4850248;29;20209;-59
2022/04/04 13:24:16;;;;;;;3.05;1.30;;;9.60;99.90;;;;;;4844664;29;20206;-58
2022/04/04 13:26:49;;;;;;;2.78;1.60;;;9.50;99.90;;;;;;4843671;29;20229;-59
2022/04/04 13:29:20;;;;;;;5.10;1.50;;;9.50;99.90;;;;;;4850973;29;20267;-59
2022/04/04 13:31:52;;;;;;;5.75;2.13;;;9.50;99.90;;;;;;4837682;29;20220;-59
2022/04/04 13:34:22;;;;;;;3.47;1.80;;;9.40;99.90;;;;;;4842918;29;20212;-59
2022/04/04 13:36:53;;;;;;;6.93;1.87;;;9.30;99.90;;;;;;4847767;29;20477;-59